Time;durP1;ratioP1;P1;durP2;ratioP2;P2;SDS_P1;SDS_P2;PMS_P1;PMS_P2;Temp;Humidity;BMP_temperature;BMP_pressure;BME280_temperature;BME280_humidity;BME280_pressure;Samples;Min_cycle;Max_cycle;Signal;HPM_P1;HPM_P2
2022/05/04 00:02:56;;;;;;;23.83;13.30;;;4.20;99.90;;;2.76;100.00;101434.63;4903591;28;20506;-77
2022/05/04 00:05:58;;;;;;;32.25;12.82;;;4.30;99.90;;;2.82;100.00;101437.19;4875709;28;20136;-77
2022/05/04 00:08:23;;;;;;;18.00;9.77;;;4.30;99.90;;;2.75;100.00;101438.09;4809314;28;20063;-77
2022/05/04 00:10:49;;;;;;;23.67;10.02;;;4.30;99.90;;;2.70;100.00;101432.03;4892801;28;20510;-77
2022/05/04 00:13:17;;;;;;;97.13;11.50;;;4.30;99.90;;;2.65;100.00;101435.50;4927904;28;20039;-77
2022/05/04 00:16:02;;;;;;;;;;;;;;;;;;;;;
2022/05/04 00:18:29;;;;;;;94.07;6.80;;;;;;;2.37;100.00;101439.03;4827243;28;21880;-78
2022/05/04 00:21:11;;;;;;;34.92;6.28;;;;;;;2.28;100.00;101439.06;4844776;28;20109;-77
2022/05/04 00:23:49;;;;;;;12.18;7.15;;;3.90;99.90;;;2.20;100.00;101437.34;4849831;28;20037;-77
2022/05/04 00:26:41;;;;;;;15.27;7.90;;;3.80;99.90;;;2.16;100.00;101437.31;4813329;28;20144;-77
2022/05/04 00:29:06;;;;;;;11.40;7.57;;;3.80;99.90;;;2.15;100.00;101443.38;4801922;28;20028;-77
2022/05/04 00:31:32;;;;;;;15.27;10.13;;;3.70;99.90;;;2.04;100.00;101435.59;4910775;28;20027;-77
2022/05/04 00:33:58;;;;;;;15.63;7.75;;;3.60;99.90;;;2.00;100.00;101441.66;4908177;28;20146;-77
2022/05/04 00:36:28;;;;;;;15.55;8.38;;;3.60;99.90;;;2.02;100.00;101434.72;4902609;23;20094;-77
2022/05/04 00:38:59;;;;;;;24.13;10.23;;;;;;;2.08;100.00;101434.75;4821759;28;20046;-77
2022/05/04 00:42:26;;;;;;;17.20;10.75;;;3.60;99.90;;;2.17;100.00;101434.72;4870306;28;20455;-76
2022/05/04 00:44:52;;;;;;;21.08;9.60;;;3.60;99.90;;;2.13;100.00;101432.13;4861967;28;20130;-76
2022/05/04 00:47:21;;;;;;;22.55;10.32;;;;;;;2.11;100.00;101432.13;4872902;28;20034;-77
2022/05/04 00:50:04;;;;;;;29.00;14.02;;;3.60;99.90;;;2.08;100.00;101442.53;4834814;28;20063;-76
2022/05/04 00:52:34;;;;;;;20.02;14.05;;;3.50;99.90;;;1.93;100.00;101435.59;4844147;28;20043;-77
2022/05/04 00:55:01;;;;;;;17.67;12.35;;;3.40;99.90;;;1.74;100.00;101439.91;4930907;23;20041;-77
2022/05/04 01:00:16;;;;;;;15.95;12.07;;;3.10;99.90;;;1.37;100.00;101442.44;4916351;28;20083;-77
2022/05/04 01:02:42;;;;;;;15.50;11.00;;;3.00;99.90;;;1.29;100.00;101446.72;4945317;28;20030;-77
2022/05/04 01:05:09;;;;;;;27.85;15.20;;;2.90;99.90;;;1.27;100.00;101448.44;4967968;28;20026;-77
2022/05/04 01:07:44;;;;;;;21.15;14.20;;;2.90;99.90;;;1.37;100.00;101446.75;4944285;28;22731;-77
2022/05/04 01:10:12;;;;;;;24.95;14.65;;;3.00;99.90;;;1.54;100.00;101446.81;4909615;28;20534;-77
2022/05/04 01:12:53;;;;;;;36.08;17.05;;;3.20;99.90;;;1.73;100.00;101451.16;4869898;28;20072;-76
2022/05/04 01:15:21;;;;;;;44.42;19.48;;;3.30;99.90;;;1.91;100.00;101457.25;4845611;28;20585;-77
2022/05/04 01:18:12;;;;;;;48.58;20.13;;;3.40;99.90;;;2.10;100.00;101453.78;4878092;28;20037;-77
2022/05/04 01:20:41;;;;;;;48.10;20.48;;;3.60;99.90;;;2.23;100.00;101445.13;4865033;28;20034;-77
2022/05/04 01:23:29;;;;;;;42.10;17.52;;;3.70;99.90;;;2.36;100.00;101445.97;4829086;28;20035;-76
2022/05/04 01:26:00;;;;;;;63.53;17.42;;;3.80;99.90;;;2.41;100.00;101443.38;4851920;28;20053;-77
2022/05/04 01:28:50;;;;;;;39.70;16.15;;;3.00;99.90;;;2.50;100.00;101458.94;4813906;28;20767;-76
2022/05/04 01:32:00;;;;;;;31.70;14.70;;;4.00;99.90;;;2.52;100.00;101461.53;4894894;28;20113;-77
2022/05/04 01:34:58;;;;;;;32.55;13.73;;;;;;;2.46;100.00;101452.91;4881765;28;20111;-78
2022/05/04 01:38:00;;;;;;;26.35;12.20;;;3.90;99.90;;;2.39;100.00;101460.69;4845957;28;20150;-76
2022/05/04 01:40:50;;;;;;;20.08;10.65;;;3.90;99.90;;;2.33;100.00;101465.88;4881093;28;20033;-76
2022/05/04 01:43:33;;;;;;;14.20;9.50;;;3.70;99.90;;;2.11;100.00;101460.69;4892959;28;20107;-77
2022/05/04 01:46:10;;;;;;;15.43;10.10;;;3.50;99.90;;;1.81;100.00;101466.75;4843859;28;20046;-77
2022/05/04 01:48:40;;;;;;;15.38;7.78;;;;;;;1.55;100.00;101464.97;4884856;28;20039;-77
2022/05/04 01:51:21;;;;;;;15.15;9.57;;;3.10;99.90;;;1.50;100.00;101466.69;4849436;28;20129;-77
2022/05/04 01:54:11;;;;;;;20.17;11.88;;;3.10;99.90;;;1.53;100.00;101465.81;4886031;28;20071;-77
2022/05/04 01:56:50;;;;;;;22.48;13.10;;;3.00;99.90;;;1.36;100.00;101469.25;4848972;28;20078;-76
2022/05/04 01:59:19;;;;;;;456.98;23.67;;;2.80;99.90;;;1.18;100.00;101469.19;4869649;28;20040;-76
2022/05/04 02:01:59;;;;;;;36.30;18.52;;;2.70;99.90;;;1.02;100.00;101470.84;4860307;28;20034;-77
2022/05/04 02:04:25;;;;;;;41.88;18.42;;;2.60;99.90;;;0.91;100.00;101469.94;4947548;28;20120;-76
2022/05/04 02:06:55;;;;;;;38.30;20.85;;;2.50;99.90;;;0.83;100.00;101462.09;4950970;28;20558;-76
2022/05/04 02:09:21;;;;;;;149.65;19.02;;;2.40;99.90;;;0.77;100.00;101467.25;4936759;28;20566;-77
2022/05/04 02:11:47;;;;;;;160.25;24.52;;;2.30;99.90;;;0.72;100.00;101463.78;4893912;28;20069;-77
2022/05/04 02:14:13;;;;;;;301.63;24.23;;;2.30;99.90;;;0.65;100.00;101469.75;4919848;28;20050;-77
2022/05/04 02:16:39;;;;;;;59.55;20.73;;;2.20;99.90;;;0.58;100.00;101464.56;4925892;28;20700;-77
2022/05/04 02:19:05;;;;;;;36.70;20.40;;;2.10;99.90;;;0.51;100.00;101465.38;4937239;28;22314;-76
2022/05/04 02:21:38;;;;;;;32.70;19.35;;;2.10;99.90;;;0.50;100.00;101466.22;4923393;28;20080;-77
2022/05/04 02:24:08;;;;;;;146.20;21.13;;;2.10;99.90;;;0.53;100.00;101465.38;4951589;28;20048;-77
2022/05/04 02:26:36;;;;;;;344.00;17.27;;;2.10;99.90;;;0.56;100.00;101471.47;4949652;28;21639;-77
2022/05/04 02:29:04;;;;;;;317.42;19.60;;;2.10;99.90;;;0.57;100.00;101469.72;4915955;28;20136;-76
2022/05/04 02:31:30;;;;;;;429.27;24.45;;;2.10;99.90;;;0.59;100.00;101470.59;4945792;28;20022;-77
2022/05/04 02:33:56;;;;;;;471.83;26.35;;;2.10;99.90;;;0.64;100.00;101473.22;4919008;28;20118;-77
2022/05/04 02:39:11;;;;;;;112.03;17.77;;;2.20;99.90;;;0.71;100.00;101473.25;4913834;28;20089;-77
2022/05/04 02:41:37;;;;;;;43.08;19.58;;;2.20;99.90;;;0.78;100.00;101469.00;4893631;28;20058;-77
2022/05/04 02:44:03;;;;;;;81.20;22.10;;;2.30;99.90;;;0.87;100.00;101469.03;4943564;28;20092;-77
2022/05/04 02:46:30;;;;;;;51.13;21.23;;;2.40;99.90;;;0.97;100.00;101469.94;4940119;28;20426;-77
2022/05/04 02:48:59;;;;;;;493.40;25.75;;;2.40;99.90;;;1.07;100.00;101470.88;4912874;28;20439;-77
2022/05/04 02:51:27;;;;;;;604.10;29.35;;;2.50;99.90;;;1.09;100.00;101475.19;4950516;28;20030;-77
2022/05/04 02:53:53;;;;;;;403.17;25.67;;;2.50;99.90;;;1.06;100.00;101470.00;4929096;28;20050;-77
2022/05/04 02:56:20;;;;;;;51.28;18.83;;;2.50;99.90;;;1.08;100.00;101473.47;4939645;28;20075;-77
2022/05/04 02:58:46;;;;;;;39.75;18.75;;;2.60;99.90;;;1.13;100.00;101482.13;4940852;28;20081;-77
2022/05/04 03:04:06;;;;;;;263.65;22.85;;;2.70;99.90;;;1.26;100.00;101477.00;4929723;28;20384;-77
2022/05/04 03:06:44;;;;;;;559.47;24.52;;;2.70;99.90;;;1.26;100.00;101477.88;4928251;28;20029;-77
2022/05/04 03:09:11;;;;;;;309.70;20.63;;;2.70;99.90;;;1.29;100.00;101477.84;4912011;28;20652;-76
2022/05/04 03:11:55;;;;;;;271.23;17.70;;;2.80;99.90;;;1.34;100.00;101477.88;4929139;28;20049;-77
2022/05/04 03:14:25;;;;;;;75.40;21.02;;;2.80;99.90;;;1.33;100.00;101476.16;4923075;28;20070;-77
2022/05/04 03:16:52;;;;;;;110.30;17.90;;;2.80;99.90;;;1.30;100.00;101476.16;4913721;28;20402;-77
2022/05/04 03:19:18;;;;;;;523.55;25.05;;;2.80;99.90;;;1.32;100.00;101477.88;4946532;28;20052;-77
2022/05/04 03:21:44;;;;;;;478.00;22.83;;;2.80;99.90;;;1.32;100.00;101472.69;4917761;28;20508;-77
2022/05/04 03:24:18;;;;;;;526.15;24.13;;;2.80;99.90;;;1.31;100.00;101465.75;4926669;28;20056;-77
2022/05/04 03:27:01;;;;;;;302.48;22.13;;;2.80;99.90;;;1.29;100.00;101475.25;4868606;28;20266;-77
2022/05/04 03:29:59;;;;;;;38.97;16.50;;;2.80;99.90;;;1.31;100.00;101480.47;4857915;28;20679;-77
2022/05/04 03:32:32;;;;;;;53.58;17.55;;;2.80;99.90;;;1.32;100.00;101477.00;4924409;28;20050;-77
2022/05/04 03:34:58;;;;;;;215.55;18.67;;;2.80;99.90;;;1.36;100.00;101482.22;4895625;28;20081;-77
2022/05/04 03:37:24;;;;;;;492.00;25.73;;;2.80;99.90;;;1.44;100.00;101483.09;4940241;28;20034;-79
2022/05/04 03:39:49;;;;;;;404.90;29.42;;;2.90;99.90;;;1.52;100.00;101479.69;4925325;28;20528;-77
2022/05/04 03:42:15;;;;;;;456.23;26.55;;;3.00;99.90;;;1.55;100.00;101485.72;4949312;28;20073;-77
2022/05/04 03:44:41;;;;;;;92.60;18.10;;;3.00;99.90;;;1.61;100.00;101485.75;4969493;28;20108;-77
2022/05/04 03:47:07;;;;;;;538.85;31.33;;;;;;;1.67;100.00;101487.50;4930957;28;20029;-77
2022/05/04 03:49:35;;;;;;;47.83;17.23;;;3.10;99.90;;;1.78;100.00;101484.94;4924937;28;20102;-77
2022/05/04 03:52:01;;;;;;;417.88;27.33;;;3.20;99.90;;;1.89;100.00;101490.13;4921748;28;20030;-77
2022/05/04 03:54:27;;;;;;;37.88;18.13;;;3.30;99.90;;;1.95;100.00;101480.63;4921593;28;20026;-77
2022/05/04 03:56:53;;;;;;;167.52;21.52;;;3.30;99.90;;;2.08;100.00;101488.44;4890119;28;20035;-76
2022/05/04 03:59:18;;;;;;;491.40;36.50;;;3.40;99.90;;;2.04;100.00;101480.63;4949689;28;20672;-77
2022/05/04 04:01:44;;;;;;;252.70;26.52;;;3.40;99.90;;;2.15;100.00;101482.38;4921071;28;20073;-77
2022/05/04 04:04:18;;;;;;;341.27;27.25;;;3.60;99.90;;;2.29;100.00;101479.75;4917868;28;20525;-77
2022/05/04 04:06:44;;;;;;;44.25;18.63;;;3.70;99.90;;;2.45;100.00;101478.88;4941064;28;20029;-77
2022/05/04 04:09:10;;;;;;;223.52;21.60;;;3.70;99.90;;;2.55;100.00;101480.63;4977876;28;20034;-77
2022/05/04 04:11:35;;;;;;;158.98;17.15;;;3.80;99.90;;;2.57;100.00;101484.09;4949272;28;20507;-77
2022/05/04 04:14:01;;;;;;;77.05;13.98;;;3.80;99.90;;;2.65;100.00;101482.31;4955518;28;20085;-77
2022/05/04 04:16:30;;;;;;;46.45;12.00;;;3.90;99.90;;;2.75;100.00;101490.97;4915495;28;20038;-77
2022/05/04 04:18:55;;;;;;;192.90;19.05;;;4.00;99.90;;;2.81;100.00;101485.75;4942711;28;20091;-77
2022/05/04 04:24:06;;;;;;;36.58;11.48;;;4.20;99.90;;;3.08;100.00;101484.78;4936740;28;20547;-77
2022/05/04 04:26:32;;;;;;;62.75;12.95;;;4.30;99.90;;;3.20;100.00;101489.09;4955675;28;20017;-77
2022/05/04 04:28:58;;;;;;;109.25;13.23;;;4.40;99.90;;;3.32;100.00;101490.78;4906589;28;20170;-77
2022/05/04 04:31:26;;;;;;;101.03;14.52;;;4.50;99.90;;;3.51;100.00;101486.34;4931109;28;20499;-77
2022/05/04 04:33:52;;;;;;;276.38;15.13;;;4.60;99.90;;;3.64;100.00;101492.38;4944223;28;20485;-76
2022/05/04 04:36:18;;;;;;;134.68;12.55;;;4.80;99.90;;;3.81;100.00;101495.72;4892821;28;20029;-77
2022/05/04 04:39:00;;;;;;;163.38;14.15;;;4.80;99.90;;;3.99;100.00;101497.34;4828660;28;20038;-77
2022/05/04 04:42:12;;;;;;;115.05;13.15;;;5.00;99.90;;;4.40;98.43;101500.50;4882669;28;20046;-77
2022/05/04 04:44:40;;;;;;;61.33;11.88;;;5.40;99.90;;;4.81;95.64;101499.25;4897784;28;20439;-76
2022/05/04 04:47:13;;;;;;;36.67;10.98;;;;;;;5.80;92.70;101502.38;4876417;28;20030;-77
2022/05/04 04:49:39;;;;;;;45.38;10.88;;;6.40;99.90;;;6.56;88.47;101497.69;4886367;28;20113;-77
2022/05/04 04:52:51;;;;;;;18.00;10.23;;;7.10;99.90;;;7.84;82.69;101508.25;4899300;28;20180;-77
2022/05/04 04:55:20;;;;;;;25.27;10.25;;;7.70;99.90;;;7.84;79.99;101507.38;4965703;28;20117;-77
2022/05/04 04:58:01;;;;;;;18.42;9.80;;;8.10;99.90;;;8.39;77.00;101508.69;4909702;28;20128;-78
2022/05/04 05:00:51;;;;;;;15.65;10.10;;;8.70;99.90;;;9.29;74.97;101515.06;4882478;28;20075;-76
2022/05/04 05:03:19;;;;;;;17.13;10.35;;;9.20;99.90;;;9.77;72.37;101514.53;4899496;28;20037;-77
2022/05/04 05:05:51;;;;;;;13.73;9.57;;;;;;;9.03;73.01;101508.78;4862903;28;20027;-76
2022/05/04 05:08:17;;;;;;;15.73;9.98;;;9.30;99.90;;;8.46;74.65;101518.16;4952310;28;20048;-76
2022/05/04 05:10:43;;;;;;;14.90;8.88;;;9.00;99.90;;;8.00;75.85;101516.63;4951205;28;20042;-76
2022/05/04 05:13:08;;;;;;;14.63;9.13;;;8.80;99.90;;;7.86;77.75;101519.56;4950431;28;20124;-76
2022/05/04 05:18:23;;;;;;;16.58;10.60;;;8.80;99.90;;;8.24;79.02;101530.91;4973022;28;20033;-76
2022/05/04 05:20:49;;;;;;;17.67;10.32;;;8.80;99.90;;;8.18;79.53;101523.19;4968756;28;20076;-77
2022/05/04 05:23:15;;;;;;;20.08;10.85;;;8.80;99.90;;;8.32;79.59;101525.50;4956779;28;20105;-76
2022/05/04 05:25:41;;;;;;;15.70;9.70;;;8.90;99.90;;;8.67;79.72;101529.03;4954208;28;20072;-76
2022/05/04 05:28:07;;;;;;;18.40;10.85;;;9.20;99.90;;;9.51;77.62;101528.47;4945745;28;20106;-76
2022/05/04 05:30:33;;;;;;;20.90;10.95;;;9.60;99.90;;;10.15;75.27;101528.25;4909616;28;20534;-77
2022/05/04 05:33:00;;;;;;;22.58;10.55;;;10.00;99.90;;;10.39;73.66;101539.81;4947634;28;20781;-77
2022/05/04 05:35:29;;;;;;;28.00;12.35;;;10.40;99.90;;;10.71;72.83;101524.66;4916651;28;20084;-76
2022/05/04 05:37:54;;;;;;;22.60;12.10;;;10.60;99.90;;;10.56;72.83;101523.41;4975080;28;20038;-76
2022/05/04 05:40:20;;;;;;;25.73;12.55;;;10.90;99.90;;;12.33;70.41;101536.16;4939801;28;20035;-77
2022/05/04 05:42:46;;;;;;;19.00;10.70;;;11.60;99.90;;;13.73;65.58;101536.22;4925663;28;20491;-76
2022/05/04 05:45:11;;;;;;;17.63;11.07;;;12.50;99.90;;;15.21;60.53;101522.75;4983580;28;20029;-77
2022/05/04 05:47:39;;;;;;;16.80;10.70;;;13.90;99.90;;;18.35;54.03;101526.19;4943186;28;20080;-75
2022/05/04 05:50:08;;;;;;;14.75;9.63;;;15.40;99.90;;;20.00;49.33;101534.28;4939738;28;20038;-76
2022/05/04 05:52:34;;;;;;;17.98;8.95;;;16.90;99.90;;;21.26;46.25;101533.59;4973017;28;20081;-76
2022/05/04 05:55:00;;;;;;;14.52;8.80;;;18.10;99.90;;;21.69;44.77;101546.28;4924980;28;20038;-75
2022/05/04 05:57:26;;;;;;;11.57;8.82;;;18.60;99.90;;;20.10;46.55;101548.66;4952768;28;20511;-76
2022/05/04 05:59:52;;;;;;;15.77;9.00;;;19.00;99.90;;;21.44;44.96;101557.25;4917230;28;20030;-74
2022/05/04 06:02:19;;;;;;;13.82;9.45;;;19.50;99.90;;;22.10;43.75;101568.00;4949363;28;20039;-75
2022/05/04 06:04:46;;;;;;;14.95;9.80;;;20.10;99.90;;;23.53;41.45;101566.66;4931848;28;20026;-74
2022/05/04 06:07:12;;;;;;;13.60;9.15;;;20.90;99.90;;;24.71;39.94;101585.59;4933495;28;20033;-75
2022/05/04 06:09:38;;;;;;;14.55;9.20;;;21.80;99.40;;;26.02;37.89;101591.13;4950370;28;20033;-75
2022/05/04 06:12:04;;;;;;;13.18;9.13;;;22.60;97.50;;;25.77;37.33;101598.91;4969937;28;20072;-75
2022/05/04 06:14:30;;;;;;;13.55;8.93;;;23.20;97.00;;;26.29;36.59;101604.59;4949378;28;20046;-75
2022/05/04 06:16:55;;;;;;;11.15;7.93;;;23.80;94.70;;;27.06;35.54;101615.72;4928178;28;20061;-75
2022/05/04 06:19:21;;;;;;;11.38;8.10;;;24.50;94.90;;;28.00;34.41;101616.81;4954842;28;20429;-75
2022/05/04 06:21:49;;;;;;;13.05;7.60;;;25.10;94.00;;;28.60;33.33;101627.44;4957951;28;20062;-75
2022/05/04 06:24:15;;;;;;;10.95;8.10;;;25.80;92.30;;;28.80;33.03;101625.25;4964826;28;20042;-75
2022/05/04 06:26:41;;;;;;;13.18;8.00;;;26.10;90.40;;;28.79;32.77;101628.97;4937172;28;20036;-74
2022/05/04 06:29:06;;;;;;;;;;;26.50;91.50;;;30.07;31.68;101640.91;4927312;28;21324;-75
2022/05/04 06:34:17;;;;;;;12.43;6.10;;;27.70;80.50;;;29.57;30.91;101643.78;4981661;28;20048;-74
2022/05/04 06:36:45;;;;;;;12.13;6.07;;;28.00;85.60;;;30.21;30.95;101645.56;4970287;28;20560;-75
2022/05/04 06:39:11;;;;;;;11.52;5.60;;;28.30;83.20;;;30.76;29.66;101654.59;4941483;28;20540;-75
2022/05/04 06:41:38;;;;;;;7.95;5.60;;;28.60;83.20;;;30.80;29.63;101651.31;4961967;28;20080;-75
2022/05/04 06:44:05;;;;;;;9.77;5.93;;;29.10;82.50;;;31.30;29.14;101668.06;4953163;28;20034;-75
2022/05/04 06:46:31;;;;;;;11.23;6.40;;;29.50;81.60;;;31.87;29.01;101669.31;4966399;28;20058;-76
2022/05/04 06:48:57;;;;;;;13.32;5.50;;;29.90;81.30;;;31.91;28.49;101677.94;4971685;28;20034;-75
2022/05/04 06:51:27;;;;;;;8.05;5.43;;;30.10;79.70;;;31.70;28.65;101676.81;4959009;28;20853;-76
2022/05/04 06:53:53;;;;;;;9.32;5.00;;;30.10;77.40;;;31.02;29.37;101681.41;4940682;28;20184;-76
2022/05/04 06:56:19;;;;;;;10.20;4.68;;;30.00;74.50;;;30.77;28.49;101695.16;4965657;28;20497;-75
2022/05/04 06:58:45;;;;;;;10.57;4.97;;;29.90;74.20;;;30.50;28.60;101693.81;4968823;28;20050;-76
2022/05/04 07:01:11;;;;;;;8.63;4.95;;;29.80;74.40;;;30.56;28.68;101693.13;4966005;28;20045;-76
2022/05/04 07:03:38;;;;;;;11.18;4.25;;;29.80;72.30;;;30.33;27.88;101695.78;4961778;28;20031;-75
2022/05/04 07:06:08;;;;;;;9.13;4.60;;;29.90;73.60;;;31.10;27.57;101703.06;4968767;28;20522;-76
2022/05/04 07:08:34;;;;;;;12.20;4.18;;;30.30;73.60;;;31.36;27.38;101704.53;4938056;28;20046;-76
2022/05/04 07:11:00;;;;;;;16.15;4.38;;;30.60;71.50;;;31.26;27.56;101711.09;4944447;28;20027;-76
2022/05/04 07:13:27;;;;;;;10.00;3.90;;;30.80;70.10;;;31.30;26.74;101711.59;4947427;28;20038;-75
2022/05/04 07:15:55;;;;;;;14.25;4.40;;;30.90;68.80;;;31.31;26.63;101710.53;4978572;28;20116;-76
2022/05/04 07:18:21;;;;;;;9.00;3.90;;;31.10;69.20;;;31.58;26.42;101714.56;4947653;28;20030;-77
2022/05/04 07:20:47;;;;;;;12.07;3.40;;;31.30;68.40;;;32.04;25.83;101719.84;4957599;28;20050;-75
2022/05/04 07:23:12;;;;;;;12.30;3.30;;;31.50;65.40;;;32.37;24.75;101719.41;4977243;28;20039;-76
2022/05/04 07:25:38;;;;;;;12.18;3.63;;;31.50;60.30;;;31.29;25.46;101726.19;4979563;28;20109;-74
2022/05/04 07:28:06;;;;;;;14.82;3.60;;;31.60;65.20;;;31.80;25.42;101729.13;5003769;28;20038;-74
2022/05/04 07:30:32;;;;;;;13.55;4.03;;;31.90;61.80;;;31.99;25.05;101732.34;4984505;28;20034;-76
2022/05/04 07:32:58;;;;;;;8.15;3.28;;;31.80;61.50;;;31.35;25.23;101735.50;4969607;28;20442;-76
2022/05/04 07:35:24;;;;;;;10.15;3.33;;;31.20;61.70;;;30.75;25.66;101735.25;4947222;28;20036;-76
2022/05/04 07:37:49;;;;;;;7.88;2.83;;;31.20;61.20;;;31.07;25.05;101730.66;4941540;28;20023;-76
2022/05/04 07:42:59;;;;;;;11.50;3.08;;;31.00;61.70;;;29.85;25.99;101739.25;4926628;28;20045;-76
2022/05/04 07:45:25;;;;;;;9.38;3.17;;;30.30;62.30;;;29.37;26.68;101729.28;4970043;28;20109;-76
2022/05/04 07:47:51;;;;;;;14.98;3.40;;;29.80;64.50;;;29.28;27.13;101727.59;4965723;28;20029;-76
2022/05/04 07:50:17;;;;;;;16.27;3.60;;;29.20;64.00;;;28.52;27.88;101729.53;4929515;28;20395;-76
2022/05/04 07:52:43;;;;;;;9.95;3.22;;;28.60;63.20;;;27.25;28.52;101727.44;4935120;28;20775;-76
2022/05/04 07:55:11;;;;;;;14.23;3.65;;;27.70;63.00;;;26.06;29.74;101717.50;4932759;28;20032;-75
2022/05/04 07:57:37;;;;;;;11.68;3.35;;;27.10;67.30;;;26.88;29.55;101718.47;4956882;28;20294;-76
2022/05/04 08:05:41;;;;;;;18.52;3.45;;;27.30;68.50;;;27.70;29.70;101715.56;4910342;28;20049;-75
2022/05/04 08:08:08;;;;;;;11.98;3.40;;;27.30;67.30;;;27.37;29.48;101707.25;4927151;28;20053;-75
2022/05/04 08:10:41;;;;;;;12.18;3.33;;;27.60;68.00;;;28.08;28.42;101711.56;4947314;28;23313;-76
2022/05/04 08:13:07;;;;;;;11.60;3.03;;;28.00;64.00;;;28.21;28.09;101721.97;4931950;28;20112;-76
2022/05/04 08:15:33;;;;;;;13.27;3.30;;;28.10;64.80;;;28.14;27.56;101721.75;4954226;28;20038;-76
2022/05/04 08:17:59;;;;;;;12.05;3.25;;;28.10;65.10;;;28.01;28.56;101724.91;4945872;28;20057;-76
2022/05/04 08:20:28;;;;;;;10.70;3.25;;;28.00;65.90;;;27.59;28.72;101717.53;4971184;28;20479;-75
2022/05/04 08:22:54;;;;;;;11.90;3.53;;;27.50;66.30;;;26.62;30.04;101718.38;4951224;28;20410;-77
2022/05/04 08:25:20;;;;;;;13.35;3.25;;;26.90;67.10;;;26.07;30.65;101719.22;4961683;28;20019;-76
2022/05/04 08:27:46;;;;;;;11.75;3.35;;;26.20;67.60;;;25.14;31.48;101710.88;4973050;28;20102;-76
2022/05/04 08:30:12;;;;;;;11.98;2.78;;;25.50;68.60;;;24.56;32.62;101709.00;4939081;28;20029;-76
2022/05/04 08:32:38;;;;;;;9.32;2.92;;;25.10;71.30;;;24.46;33.56;101699.19;4925489;28;20053;-76
2022/05/04 08:35:04;;;;;;;13.93;3.25;;;24.70;71.60;;;23.63;34.26;101693.00;4993844;28;21132;-76
2022/05/04 08:37:30;;;;;;;13.82;3.22;;;24.20;72.90;;;23.30;35.41;101693.13;4949193;28;20116;-76
2022/05/04 08:39:57;;;;;;;13.55;3.28;;;24.10;72.60;;;23.94;34.25;101684.00;4957145;28;20018;-76
2022/05/04 08:42:23;;;;;;;7.07;3.15;;;24.10;73.40;;;24.03;34.39;101684.19;4933077;28;20095;-76
2022/05/04 08:44:58;;;;;;;8.65;3.58;;;23.80;70.20;;;23.04;34.43;101684.56;4962903;28;20029;-76
2022/05/04 08:47:31;;;;;;;15.52;3.83;;;23.30;73.60;;;22.22;36.77;101668.94;4989474;28;20072;-76
2022/05/04 08:49:57;;;;;;;13.02;3.63;;;23.00;75.60;;;21.88;37.88;101660.91;4966314;28;20430;-76
2022/05/04 08:52:28;;;;;;;12.20;3.58;;;22.70;75.80;;;21.87;37.64;101658.34;4917210;28;20030;-75
2022/05/04 08:54:54;;;;;;;11.52;3.13;;;22.50;74.00;;;21.47;37.55;101648.13;4950086;28;20033;-76
2022/05/04 08:57:21;;;;;;;14.20;3.17;;;22.30;74.00;;;21.47;36.77;101645.44;4930515;28;20038;-76
2022/05/04 08:59:47;;;;;;;13.77;3.30;;;22.30;77.00;;;21.64;37.64;101649.44;4908438;28;20030;-78
2022/05/04 09:02:13;;;;;;;12.60;3.40;;;22.30;78.70;;;21.83;38.09;101641.66;4941535;28;20030;-75
2022/05/04 09:04:42;;;;;;;16.60;3.10;;;22.40;77.20;;;22.04;37.21;101640.91;4948772;22;21582;-76
2022/05/04 09:07:28;;;;;;;10.13;2.88;;;22.40;75.30;;;21.80;37.52;101630.34;4951877;28;20030;-76
2022/05/04 09:09:54;;;;;;;16.45;3.00;;;22.50;76.10;;;21.99;37.00;101629.72;4950733;28;20065;-76
2022/05/04 09:12:22;;;;;;;13.13;3.10;;;22.60;77.00;;;22.11;37.70;101628.69;4905648;28;20093;-76
2022/05/04 09:14:51;;;;;;;11.20;3.60;;;22.70;78.00;;;22.25;37.99;101625.78;4919704;28;20046;-76
2022/05/04 09:17:21;;;;;;;14.80;3.53;;;22.90;77.40;;;22.47;37.50;101624.03;4928068;28;20110;-76
2022/05/04 09:22:55;;;;;;;11.65;3.47;;;22.70;77.00;;;21.69;38.36;101615.09;4924285;28;20580;-76
2022/05/04 09:25:24;;;;;;;17.13;4.13;;;22.60;78.30;;;21.79;39.22;101608.03;4920905;28;20114;-76
2022/05/04 09:27:51;;;;;;;11.25;3.50;;;22.50;77.70;;;21.91;38.26;101608.88;4931250;28;20627;-76
2022/05/04 09:30:25;;;;;;;20.67;4.03;;;22.60;79.60;;;22.03;38.45;101607.00;4889827;28;20486;-76
2022/05/04 09:32:54;;;;;;;19.25;3.92;;;22.60;79.10;;;21.83;38.91;101600.59;4921075;28;20038;-76
2022/05/04 09:35:21;;;;;;;20.05;3.85;;;22.60;80.20;;;22.01;39.40;101604.47;4959888;28;20121;-76
2022/05/04 09:46:09;;;;;;;10.38;3.63;;;22.60;79.10;;;22.05;38.59;101588.97;4950644;28;20403;-75
2022/05/04 09:48:36;;;;;;;20.13;3.65;;;22.50;78.60;;;21.87;38.41;101589.50;4949390;28;20030;-76
2022/05/04 09:51:09;;;;;;;11.18;3.92;;;22.40;79.00;;;21.99;38.30;101581.44;4931645;28;20407;-75
2022/05/04 09:53:36;;;;;;;11.68;3.85;;;22.40;82.50;;;22.00;40.65;101580.47;4925908;28;20088;-75
2022/05/04 09:56:03;;;;;;;9.43;3.95;;;22.60;79.40;;;22.02;39.10;101581.19;4932785;28;21635;-75
2022/05/04 09:58:39;;;;;;;11.15;4.30;;;22.20;78.90;;;21.06;40.99;101578.00;4933382;28;20030;-75
2022/05/04 10:01:11;;;;;;;15.02;4.10;;;22.10;80.20;;;21.22;40.69;101577.66;4928898;28;20446;-75
2022/05/04 10:03:38;;;;;;;14.05;4.22;;;22.00;81.10;;;21.10;40.88;101566.09;4917751;28;20438;-76
2022/05/04 10:06:05;;;;;;;11.35;4.75;;;21.90;80.70;;;21.13;40.56;101570.34;4955412;23;20132;-75
2022/05/04 10:08:33;;;;;;;8.38;4.22;;;21.80;81.70;;;21.23;40.37;101563.31;4926898;28;20034;-76
2022/05/04 10:10:59;;;;;;;10.20;4.45;;;21.90;82.80;;;21.37;41.58;101558.69;4970074;28;20554;-75
2022/05/04 10:13:29;;;;;;;12.73;5.95;;;22.00;83.60;;;21.70;41.25;101564.03;4966742;28;20105;-75
2022/05/04 10:15:57;;;;;;;12.25;4.32;;;22.20;81.60;;;21.92;39.99;101552.44;4957797;28;20038;-75
2022/05/04 10:18:29;;;;;;;11.27;4.60;;;22.50;81.50;;;22.21;40.08;101554.56;4955163;28;20091;-75
2022/05/04 10:21:15;;;;;;;12.88;4.63;;;22.70;80.40;;;22.26;38.66;101559.56;4969885;28;20027;-75
2022/05/04 10:23:52;;;;;;;11.20;4.68;;;22.80;78.10;;;22.30;38.53;101556.50;4938603;28;20038;-75
2022/05/04 10:26:35;;;;;;;12.57;4.55;;;22.80;79.60;;;22.31;39.01;101546.63;4974305;28;20030;-75
2022/05/04 10:32:31;;;;;;;8.15;3.92;;;22.90;77.30;;;21.90;38.35;101543.69;4949358;28;20033;-75
2022/05/04 10:35:31;;;;;;;9.57;4.70;;;22.50;76.20;;;21.26;38.83;101543.47;4934278;28;20042;-75
2022/05/04 10:37:59;;;;;;;9.15;4.28;;;22.10;78.30;;;21.01;39.82;101534.66;4937848;28;20065;-75
2022/05/04 10:40:56;;;;;;;14.50;4.03;;;21.80;80.60;;;20.93;40.71;101531.75;4959448;28;20023;-75
2022/05/04 10:43:50;;;;;;;10.38;4.30;;;21.60;78.20;;;20.44;40.08;101535.47;4948587;28;20027;-75
2022/05/04 10:46:25;;;;;;;8.43;4.25;;;21.30;78.60;;;20.23;40.57;101530.75;4964163;23;20443;-76
2022/05/04 10:48:59;;;;;;;13.80;4.65;;;21.10;82.20;;;20.31;42.14;101524.00;4943034;28;20166;-75
2022/05/04 10:51:34;;;;;;;12.02;4.03;;;21.10;81.20;;;20.12;41.14;101519.16;4975243;28;20205;-75
2022/05/04 10:54:18;;;;;;;16.05;4.65;;;21.00;81.40;;;20.26;42.77;101516.31;4941354;28;25951;-75
2022/05/04 10:56:54;;;;;;;11.93;4.20;;;21.20;82.30;;;20.76;41.18;101516.16;4935595;28;20098;-75
2022/05/04 10:59:30;;;;;;;11.85;3.78;;;21.50;81.70;;;21.06;40.42;101519.09;4927827;28;20050;-75
2022/05/04 11:02:07;;;;;;;12.15;3.47;;;21.70;82.10;;;21.34;40.54;101519.59;4916093;28;20043;-74
2022/05/04 11:04:40;;;;;;;13.70;4.32;;;21.80;80.30;;;21.22;40.46;101515.22;4924855;23;20035;-75
2022/05/04 11:07:15;;;;;;;11.15;3.60;;;21.90;81.50;;;21.36;40.97;101520.34;4854653;28;20125;-75